sensor_id;sensor_type;location;lat;lon;timestamp;pressure;altitude;pressure_sealevel;temperature;humidity
50093;BME280;35974;47.752;10.290;2024-01-06T00:01:13;92553.91;;;3.12;100.00
50093;BME280;35974;47.752;10.290;2024-01-06T00:03:40;92542.72;;;3.05;100.00
50093;BME280;35974;47.752;10.290;2024-01-06T00:06:07;92521.97;;;2.91;100.00
50093;BME280;35974;47.752;10.290;2024-01-06T00:08:33;92562.25;;;3.14;100.00
50093;BME280;35974;47.752;10.290;2024-01-06T00:11:00;92545.06;;;3.00;100.00
50093;BME280;35974;47.752;10.290;2024-01-06T00:13:29;92545.06;;;3.00;100.00
50093;BME280;35974;47.752;10.290;2024-01-06T00:15:57;92551.84;;;3.01;100.00
50093;BME280;35974;47.752;10.290;2024-01-06T00:18:23;92549.00;;;2.96;100.00
50093;BME280;35974;47.752;10.290;2024-01-06T00:20:50;92518.75;;;2.83;100.00
50093;BME280;35974;47.752;10.290;2024-01-06T00:23:17;92533.66;;;2.87;100.00
50093;BME280;35974;47.752;10.290;2024-01-06T00:25:44;92543.00;;;2.88;100.00
50093;BME280;35974;47.752;10.290;2024-01-06T00:28:11;92522.50;;;2.80;100.00
50093;BME280;35974;47.752;10.290;2024-01-06T00:30:37;92523.09;;;2.82;100.00
50093;BME280;35974;47.752;10.290;2024-01-06T00:33:04;92519.13;;;2.80;100.00
50093;BME280;35974;47.752;10.290;2024-01-06T00:35:30;92548.19;;;2.88;100.00
50093;BME280;35974;47.752;10.290;2024-01-06T00:37:57;92527.66;;;2.80;100.00
50093;BME280;35974;47.752;10.290;2024-01-06T00:40:23;92514.25;;;2.63;100.00
50093;BME280;35974;47.752;10.290;2024-01-06T00:42:50;92541.75;;;2.78;100.00
50093;BME280;35974;47.752;10.290;2024-01-06T00:45:28;92522.56;;;2.59;100.00
50093;BME280;35974;47.752;10.290;2024-01-06T00:47:55;92541.25;;;2.61;100.00
50093;BME280;35974;47.752;10.290;2024-01-06T00:50:21;92566.69;;;2.64;100.00
50093;BME280;35974;47.752;10.290;2024-01-06T00:52:48;92560.66;;;2.56;100.00
50093;BME280;35974;47.752;10.290;2024-01-06T00:55:19;92558.59;;;2.45;100.00
50093;BME280;35974;47.752;10.290;2024-01-06T00:57:45;92560.56;;;2.43;100.00
50093;BME280;35974;47.752;10.290;2024-01-06T01:00:12;92575.69;;;2.46;100.00
50093;BME280;35974;47.752;10.290;2024-01-06T01:02:39;92539.72;;;2.16;100.00
50093;BME280;35974;47.752;10.290;2024-01-06T01:05:08;92567.25;;;2.31;100.00
50093;BME280;35974;47.752;10.290;2024-01-06T01:07:34;92569.19;;;2.29;100.00
50093;BME280;35974;47.752;10.290;2024-01-06T01:10:03;92570.97;;;2.28;100.00
50093;BME280;35974;47.752;10.290;2024-01-06T01:12:31;92565.16;;;2.19;100.00
50093;BME280;35974;47.752;10.290;2024-01-06T01:15:00;92580.28;;;2.23;100.00
50093;BME280;35974;47.752;10.290;2024-01-06T01:17:26;92549.31;;;2.23;100.00
50093;BME280;35974;47.752;10.290;2024-01-06T01:19:53;92571.53;;;2.24;100.00
50093;BME280;35974;47.752;10.290;2024-01-06T01:22:19;92593.41;;;2.28;100.00
50093;BME280;35974;47.752;10.290;2024-01-06T01:24:46;92573.38;;;2.08;100.00
50093;BME280;35974;47.752;10.290;2024-01-06T01:27:12;92568.72;;;1.97;100.00
50093;BME280;35974;47.752;10.290;2024-01-06T01:29:39;92559.72;;;1.93;100.00
50093;BME280;35974;47.752;10.290;2024-01-06T01:32:05;92570.47;;;1.96;100.00
50093;BME280;35974;47.752;10.290;2024-01-06T01:34:32;92575.28;;;1.99;100.00
50093;BME280;35974;47.752;10.290;2024-01-06T01:36:59;92602.38;;;2.10;100.00
50093;BME280;35974;47.752;10.290;2024-01-06T01:39:26;92582.81;;;2.01;100.00
50093;BME280;35974;47.752;10.290;2024-01-06T01:41:52;92590.38;;;2.03;100.00
50093;BME280;35974;47.752;10.290;2024-01-06T01:44:19;92592.53;;;1.99;100.00
50093;BME280;35974;47.752;10.290;2024-01-06T01:46:46;92593.88;;;1.95;100.00
50093;BME280;35974;47.752;10.290;2024-01-06T01:49:13;92597.44;;;1.94;100.00
50093;BME280;35974;47.752;10.290;2024-01-06T01:51:40;92589.81;;;1.86;100.00
50093;BME280;35974;47.752;10.290;2024-01-06T01:54:07;92606.41;;;1.98;100.00
50093;BME280;35974;47.752;10.290;2024-01-06T01:56:34;92586.25;;;1.87;100.00
50093;BME280;35974;47.752;10.290;2024-01-06T01:59:12;92607.78;;;1.94;100.00
50093;BME280;35974;47.752;10.290;2024-01-06T02:01:40;92599.72;;;1.82;100.00
50093;BME280;35974;47.752;10.290;2024-01-06T02:04:07;92600.88;;;1.79;100.00
50093;BME280;35974;47.752;10.290;2024-01-06T02:06:35;92608.84;;;1.85;100.00
50093;BME280;35974;47.752;10.290;2024-01-06T02:09:02;92599.97;;;1.72;100.00
50093;BME280;35974;47.752;10.290;2024-01-06T02:11:29;92614.72;;;1.78;100.00
50093;BME280;35974;47.752;10.290;2024-01-06T02:13:55;92613.88;;;1.71;100.00
50093;BME280;35974;47.752;10.290;2024-01-06T02:16:23;92620.34;;;1.67;100.00
50093;BME280;35974;47.752;10.290;2024-01-06T02:18:50;92602.22;;;1.60;100.00
50093;BME280;35974;47.752;10.290;2024-01-06T02:21:17;92612.09;;;1.57;100.00
50093;BME280;35974;47.752;10.290;2024-01-06T02:23:44;92611.50;;;1.55;100.00
50093;BME280;35974;47.752;10.290;2024-01-06T02:26:10;92615.13;;;1.45;100.00
50093;BME280;35974;47.752;10.290;2024-01-06T02:28:39;92614.88;;;1.40;100.00
50093;BME280;35974;47.752;10.290;2024-01-06T02:31:06;92618.16;;;1.34;100.00
50093;BME280;35974;47.752;10.290;2024-01-06T02:33:32;92625.28;;;1.32;100.00
50093;BME280;35974;47.752;10.290;2024-01-06T02:35:59;92616.38;;;1.20;100.00
50093;BME280;35974;47.752;10.290;2024-01-06T02:38:26;92638.34;;;1.31;100.00
50093;BME280;35974;47.752;10.290;2024-01-06T02:40:52;92625.72;;;1.21;100.00
50093;BME280;35974;47.752;10.290;2024-01-06T02:43:19;92609.44;;;1.05;100.00
50093;BME280;35974;47.752;10.290;2024-01-06T02:45:45;92615.50;;;1.13;100.00
50093;BME280;35974;47.752;10.290;2024-01-06T02:48:15;92624.72;;;1.22;100.00
50093;BME280;35974;47.752;10.290;2024-01-06T02:50:42;92630.25;;;1.49;100.00
50093;BME280;35974;47.752;10.290;2024-01-06T02:53:08;92624.03;;;1.28;100.00
50093;BME280;35974;47.752;10.290;2024-01-06T02:55:36;92632.50;;;1.37;100.00
50093;BME280;35974;47.752;10.290;2024-01-06T02:58:02;92615.69;;;0.96;100.00
50093;BME280;35974;47.752;10.290;2024-01-06T03:00:29;92644.56;;;1.06;100.00
50093;BME280;35974;47.752;10.290;2024-01-06T03:02:55;92599.81;;;0.69;100.00
50093;BME280;35974;47.752;10.290;2024-01-06T03:05:22;92629.69;;;0.79;100.00
50093;BME280;35974;47.752;10.290;2024-01-06T03:07:48;92645.22;;;0.85;100.00
50093;BME280;35974;47.752;10.290;2024-01-06T03:10:44;92648.59;;;0.86;100.00
50093;BME280;35974;47.752;10.290;2024-01-06T03:13:11;92651.16;;;0.86;100.00
50093;BME280;35974;47.752;10.290;2024-01-06T03:15:37;92609.03;;;0.49;100.00
50093;BME280;35974;47.752;10.290;2024-01-06T03:18:05;92649.00;;;0.75;100.00
50093;BME280;35974;47.752;10.290;2024-01-06T03:20:31;92637.13;;;0.73;100.00
50093;BME280;35974;47.752;10.290;2024-01-06T03:22:58;92633.47;;;0.68;100.00
50093;BME280;35974;47.752;10.290;2024-01-06T03:25:24;92634.28;;;0.68;100.00
50093;BME280;35974;47.752;10.290;2024-01-06T03:27:51;92650.63;;;0.76;100.00
50093;BME280;35974;47.752;10.290;2024-01-06T03:30:17;92636.13;;;0.60;100.00
50093;BME280;35974;47.752;10.290;2024-01-06T03:32:44;92650.41;;;0.62;100.00
50093;BME280;35974;47.752;10.290;2024-01-06T03:35:10;92659.91;;;0.62;100.00
50093;BME280;35974;47.752;10.290;2024-01-06T03:37:37;92652.72;;;0.57;100.00
50093;BME280;35974;47.752;10.290;2024-01-06T03:40:21;92653.63;;;0.64;100.00
50093;BME280;35974;47.752;10.290;2024-01-06T03:42:47;92634.41;;;0.52;100.00
50093;BME280;35974;47.752;10.290;2024-01-06T03:45:14;92640.47;;;0.59;100.00
50093;BME280;35974;47.752;10.290;2024-01-06T03:47:41;92636.28;;;0.58;100.00
50093;BME280;35974;47.752;10.290;2024-01-06T03:50:07;92643.31;;;0.64;100.00
50093;BME280;35974;47.752;10.290;2024-01-06T03:52:34;92644.00;;;0.58;100.00
50093;BME280;35974;47.752;10.290;2024-01-06T03:55:00;92638.41;;;0.54;100.00
50093;BME280;35974;47.752;10.290;2024-01-06T03:57:31;92655.56;;;0.62;100.00
50093;BME280;35974;47.752;10.290;2024-01-06T03:59:57;92643.56;;;0.54;100.00
50093;BME280;35974;47.752;10.290;2024-01-06T04:02:24;92646.84;;;0.63;100.00
50093;BME280;35974;47.752;10.290;2024-01-06T04:04:50;92660.72;;;0.62;100.00
50093;BME280;35974;47.752;10.290;2024-01-06T04:07:25;92648.25;;;0.51;100.00
50093;BME280;35974;47.752;10.290;2024-01-06T04:09:52;92656.59;;;0.53;100.00
50093;BME280;35974;47.752;10.290;2024-01-06T04:12:18;92653.41;;;0.51;100.00
50093;BME280;35974;47.752;10.290;2024-01-06T04:14:45;92664.66;;;0.50;100.00
50093;BME280;35974;47.752;10.290;2024-01-06T04:17:11;92656.38;;;0.40;100.00
50093;BME280;35974;47.752;10.290;2024-01-06T04:19:38;92656.72;;;0.36;100.00
50093;BME280;35974;47.752;10.290;2024-01-06T04:22:04;92671.47;;;0.43;100.00
50093;BME280;35974;47.752;10.290;2024-01-06T04:24:31;92673.88;;;0.44;100.00
50093;BME280;35974;47.752;10.290;2024-01-06T04:27:00;92684.28;;;0.51;100.00
50093;BME280;35974;47.752;10.290;2024-01-06T04:29:27;92674.69;;;0.45;100.00
50093;BME280;35974;47.752;10.290;2024-01-06T04:31:53;92684.97;;;0.45;100.00
50093;BME280;35974;47.752;10.290;2024-01-06T04:34:20;92683.34;;;0.44;100.00
50093;BME280;35974;47.752;10.290;2024-01-06T04:36:46;92682.13;;;0.40;100.00
50093;BME280;35974;47.752;10.290;2024-01-06T04:39:15;92696.16;;;0.52;100.00
50093;BME280;35974;47.752;10.290;2024-01-06T04:41:41;92684.63;;;0.48;100.00
50093;BME280;35974;47.752;10.290;2024-01-06T04:44:08;92672.44;;;0.42;100.00
50093;BME280;35974;47.752;10.290;2024-01-06T04:46:34;92710.94;;;0.58;100.00
50093;BME280;35974;47.752;10.290;2024-01-06T04:49:01;92695.81;;;0.55;100.00
50093;BME280;35974;47.752;10.290;2024-01-06T04:51:27;92697.78;;;0.53;100.00
50093;BME280;35974;47.752;10.290;2024-01-06T04:53:54;92692.97;;;0.50;100.00
50093;BME280;35974;47.752;10.290;2024-01-06T04:56:20;92705.34;;;0.54;100.00
50093;BME280;35974;47.752;10.290;2024-01-06T04:58:47;92702.94;;;0.53;100.00
50093;BME280;35974;47.752;10.290;2024-01-06T05:01:13;92700.69;;;0.50;100.00
50093;BME280;35974;47.752;10.290;2024-01-06T05:03:40;92711.28;;;0.55;100.00
50093;BME280;35974;47.752;10.290;2024-01-06T05:06:07;92712.25;;;0.54;100.00
50093;BME280;35974;47.752;10.290;2024-01-06T05:08:34;92713.22;;;0.53;100.00
50093;BME280;35974;47.752;10.290;2024-01-06T05:11:02;92726.38;;;0.58;100.00
50093;BME280;35974;47.752;10.290;2024-01-06T05:13:29;92730.28;;;0.54;100.00
50093;BME280;35974;47.752;10.290;2024-01-06T05:15:56;92730.41;;;0.61;100.00
50093;BME280;35974;47.752;10.290;2024-01-06T05:18:23;92728.03;;;0.51;100.00
50093;BME280;35974;47.752;10.290;2024-01-06T05:20:49;92746.63;;;0.61;100.00
50093;BME280;35974;47.752;10.290;2024-01-06T05:23:16;92725.13;;;0.54;100.00
50093;BME280;35974;47.752;10.290;2024-01-06T05:25:42;92731.06;;;0.54;100.00
50093;BME280;35974;47.752;10.290;2024-01-06T05:28:09;92734.44;;;0.55;100.00
50093;BME280;35974;47.752;10.290;2024-01-06T05:30:35;92717.47;;;0.46;100.00
50093;BME280;35974;47.752;10.290;2024-01-06T05:33:02;92735.09;;;0.57;100.00
50093;BME280;35974;47.752;10.290;2024-01-06T05:35:30;92737.31;;;0.60;100.00
50093;BME280;35974;47.752;10.290;2024-01-06T05:37:56;92745.06;;;0.60;100.00
50093;BME280;35974;47.752;10.290;2024-01-06T05:40:23;92748.25;;;0.62;100.00
50093;BME280;35974;47.752;10.290;2024-01-06T05:42:49;92745.22;;;0.59;100.00
50093;BME280;35974;47.752;10.290;2024-01-06T05:45:17;92753.09;;;0.57;100.00
50093;BME280;35974;47.752;10.290;2024-01-06T05:47:44;92744.00;;;0.46;100.00
50093;BME280;35974;47.752;10.290;2024-01-06T05:50:10;92763.91;;;0.52;100.00
50093;BME280;35974;47.752;10.290;2024-01-06T05:52:37;92748.69;;;0.43;100.00
50093;BME280;35974;47.752;10.290;2024-01-06T05:55:04;92764.25;;;0.49;100.00
50093;BME280;35974;47.752;10.290;2024-01-06T05:57:31;92765.72;;;0.44;100.00
50093;BME280;35974;47.752;10.290;2024-01-06T05:59:59;92764.41;;;0.48;100.00
50093;BME280;35974;47.752;10.290;2024-01-06T06:02:26;92767.91;;;0.55;100.00
50093;BME280;35974;47.752;10.290;2024-01-06T06:04:52;92766.66;;;0.51;100.00
50093;BME280;35974;47.752;10.290;2024-01-06T06:07:19;92771.81;;;0.51;100.00
50093;BME280;35974;47.752;10.290;2024-01-06T06:09:47;92770.81;;;0.52;100.00
50093;BME280;35974;47.752;10.290;2024-01-06T06:12:14;92770.78;;;0.60;100.00
50093;BME280;35974;47.752;10.290;2024-01-06T06:14:40;92781.44;;;0.57;100.00
50093;BME280;35974;47.752;10.290;2024-01-06T06:17:07;92768.25;;;0.52;100.00
50093;BME280;35974;47.752;10.290;2024-01-06T06:19:34;92746.63;;;0.38;100.00
50093;BME280;35974;47.752;10.290;2024-01-06T06:22:01;92753.50;;;0.46;100.00
50093;BME280;35974;47.752;10.290;2024-01-06T06:24:28;92752.69;;;0.45;100.00
50093;BME280;35974;47.752;10.290;2024-01-06T06:26:54;92781.09;;;0.60;100.00
50093;BME280;35974;47.752;10.290;2024-01-06T06:29:22;92776.84;;;0.67;100.00
50093;BME280;35974;47.752;10.290;2024-01-06T06:31:49;92781.22;;;0.67;100.00
50093;BME280;35974;47.752;10.290;2024-01-06T06:34:16;92773.31;;;0.68;100.00
50093;BME280;35974;47.752;10.290;2024-01-06T06:36:42;92775.56;;;0.63;100.00
50093;BME280;35974;47.752;10.290;2024-01-06T06:39:09;92779.13;;;0.62;100.00
50093;BME280;35974;47.752;10.290;2024-01-06T06:41:35;92789.44;;;0.62;100.00
50093;BME280;35974;47.752;10.290;2024-01-06T06:44:02;92780.94;;;0.53;100.00
50093;BME280;35974;47.752;10.290;2024-01-06T06:46:32;92790.72;;;0.58;100.00
50093;BME280;35974;47.752;10.290;2024-01-06T06:48:59;92789.78;;;0.59;100.00
50093;BME280;35974;47.752;10.290;2024-01-06T06:51:26;92794.91;;;0.59;100.00
50093;BME280;35974;47.752;10.290;2024-01-06T06:53:54;92790.34;;;0.69;100.00
50093;BME280;35974;47.752;10.290;2024-01-06T06:56:20;92799.06;;;0.68;100.00
50093;BME280;35974;47.752;10.290;2024-01-06T06:58:47;92802.59;;;0.67;100.00
50093;BME280;35974;47.752;10.290;2024-01-06T07:01:14;92802.69;;;0.51;100.00
50093;BME280;35974;47.752;10.290;2024-01-06T07:03:42;92814.22;;;0.55;100.00
50093;BME280;35974;47.752;10.290;2024-01-06T07:06:14;92789.88;;;0.43;100.00
50093;BME280;35974;47.752;10.290;2024-01-06T07:08:41;92814.22;;;0.55;100.00
50093;BME280;35974;47.752;10.290;2024-01-06T07:11:11;92819.34;;;0.63;100.00
50093;BME280;35974;47.752;10.290;2024-01-06T07:13:42;92814.94;;;0.49;100.00
50093;BME280;35974;47.752;10.290;2024-01-06T07:16:10;92809.78;;;0.49;100.00
50093;BME280;35974;47.752;10.290;2024-01-06T07:18:45;92819.47;;;0.39;100.00
50093;BME280;35974;47.752;10.290;2024-01-06T07:21:16;92805.50;;;0.33;100.00
50093;BME280;35974;47.752;10.290;2024-01-06T07:23:46;92822.19;;;0.37;100.00
50093;BME280;35974;47.752;10.290;2024-01-06T07:26:16;92824.28;;;0.42;100.00
50093;BME280;35974;47.752;10.290;2024-01-06T07:28:44;92826.22;;;0.40;100.00
50093;BME280;35974;47.752;10.290;2024-01-06T07:31:11;92837.78;;;0.44;100.00
50093;BME280;35974;47.752;10.290;2024-01-06T07:33:40;92829.31;;;0.35;100.00
50093;BME280;35974;47.752;10.290;2024-01-06T07:36:09;92834.78;;;0.32;100.00
50093;BME280;35974;47.752;10.290;2024-01-06T07:38:37;92848.75;;;0.38;100.00
50093;BME280;35974;47.752;10.290;2024-01-06T07:41:08;92856.44;;;0.46;100.00
50093;BME280;35974;47.752;10.290;2024-01-06T07:43:35;92847.44;;;0.42;100.00
50093;BME280;35974;47.752;10.290;2024-01-06T07:46:15;92863.84;;;0.49;100.00
50093;BME280;35974;47.752;10.290;2024-01-06T07:48:45;92863.19;;;0.47;100.00
50093;BME280;35974;47.752;10.290;2024-01-06T07:51:14;92870.56;;;0.50;100.00
50093;BME280;35974;47.752;10.290;2024-01-06T07:53:41;92879.56;;;0.54;100.00
50093;BME280;35974;47.752;10.290;2024-01-06T07:56:08;92880.06;;;0.49;100.00
50093;BME280;35974;47.752;10.290;2024-01-06T07:58:35;92865.78;;;0.39;100.00
50093;BME280;35974;47.752;10.290;2024-01-06T08:01:01;92866.13;;;0.35;100.00
50093;BME280;35974;47.752;10.290;2024-01-06T08:03:28;92869.03;;;0.32;100.00
50093;BME280;35974;47.752;10.290;2024-01-06T08:05:54;92870.94;;;0.39;100.00
50093;BME280;35974;47.752;10.290;2024-01-06T08:08:21;92852.03;;;0.23;100.00
50093;BME280;35974;47.752;10.290;2024-01-06T08:10:48;92873.22;;;0.33;100.00
50093;BME280;35974;47.752;10.290;2024-01-06T08:13:15;92869.03;;;0.32;100.00
50093;BME280;35974;47.752;10.290;2024-01-06T08:15:41;92853.28;;;0.27;100.00
50093;BME280;35974;47.752;10.290;2024-01-06T08:18:12;92864.53;;;0.34;100.00
50093;BME280;35974;47.752;10.290;2024-01-06T08:20:38;92828.06;;;0.14;100.00
50093;BME280;35974;47.752;10.290;2024-01-06T08:23:06;92882.19;;;0.46;100.00
50093;BME280;35974;47.752;10.290;2024-01-06T08:25:34;92886.31;;;0.55;100.00
50093;BME280;35974;47.752;10.290;2024-01-06T08:28:00;92853.53;;;0.41;100.00
50093;BME280;35974;47.752;10.290;2024-01-06T08:30:27;92878.59;;;0.55;100.00
50093;BME280;35974;47.752;10.290;2024-01-06T08:32:55;92869.94;;;0.48;100.00
50093;BME280;35974;47.752;10.290;2024-01-06T08:35:22;92862.91;;;0.33;100.00
50093;BME280;35974;47.752;10.290;2024-01-06T08:37:48;92877.03;;;0.46;100.00
50093;BME280;35974;47.752;10.290;2024-01-06T08:40:15;92879.28;;;0.41;100.00
50093;BME280;35974;47.752;10.290;2024-01-06T08:42:42;92896.34;;;0.42;100.00
50093;BME280;35974;47.752;10.290;2024-01-06T08:45:10;92900.16;;;0.54;100.00
50093;BME280;35974;47.752;10.290;2024-01-06T08:47:37;92878.59;;;0.55;100.00
50093;BME280;35974;47.752;10.290;2024-01-06T08:50:10;92892.53;;;0.69;100.00
50093;BME280;35974;47.752;10.290;2024-01-06T08:52:37;92893.00;;;0.72;100.00
50093;BME280;35974;47.752;10.290;2024-01-06T08:55:05;92895.75;;;0.71;100.00
50093;BME280;35974;47.752;10.290;2024-01-06T08:57:33;92876.63;;;0.65;100.00
50093;BME280;35974;47.752;10.290;2024-01-06T09:00:04;92908.75;;;0.78;100.00
50093;BME280;35974;47.752;10.290;2024-01-06T09:02:32;92902.63;;;0.79;100.00
50093;BME280;35974;47.752;10.290;2024-01-06T09:05:00;92899.44;;;0.77;100.00
50093;BME280;35974;47.752;10.290;2024-01-06T09:07:29;92900.22;;;0.77;100.00
50093;BME280;35974;47.752;10.290;2024-01-06T09:09:58;92906.63;;;0.81;100.00
50093;BME280;35974;47.752;10.290;2024-01-06T09:12:25;92896.53;;;0.71;100.00
50093;BME280;35974;47.752;10.290;2024-01-06T09:14:52;92875.00;;;0.64;100.00
50093;BME280;35974;47.752;10.290;2024-01-06T09:17:18;92884.06;;;0.60;100.00
50093;BME280;35974;47.752;10.290;2024-01-06T09:19:52;92905.03;;;0.80;100.00
50093;BME280;35974;47.752;10.290;2024-01-06T09:22:20;92898.44;;;0.78;100.00
50093;BME280;35974;47.752;10.290;2024-01-06T09:24:48;92898.44;;;0.78;100.00
50093;BME280;35974;47.752;10.290;2024-01-06T09:27:14;92897.16;;;0.82;100.00
50093;BME280;35974;47.752;10.290;2024-01-06T09:29:43;92916.06;;;0.97;100.00
50093;BME280;35974;47.752;10.290;2024-01-06T09:32:15;92896.16;;;0.91;100.00
50093;BME280;35974;47.752;10.290;2024-01-06T09:34:43;92890.06;;;0.84;100.00
50093;BME280;35974;47.752;10.290;2024-01-06T09:37:10;92922.78;;;1.06;100.00
50093;BME280;35974;47.752;10.290;2024-01-06T09:39:37;92897.06;;;0.98;100.00
50093;BME280;35974;47.752;10.290;2024-01-06T09:42:05;92930.13;;;1.18;100.00
50093;BME280;35974;47.752;10.290;2024-01-06T09:44:32;92899.59;;;1.06;100.00
50093;BME280;35974;47.752;10.290;2024-01-06T09:47:01;92923.69;;;1.14;100.00
50093;BME280;35974;47.752;10.290;2024-01-06T09:49:28;92920.66;;;1.10;100.00
50093;BME280;35974;47.752;10.290;2024-01-06T09:51:58;92930.41;;;1.23;100.00
50093;BME280;35974;47.752;10.290;2024-01-06T09:54:29;92911.75;;;1.21;100.00
50093;BME280;35974;47.752;10.290;2024-01-06T09:57:01;92909.22;;;1.13;100.00
50093;BME280;35974;47.752;10.290;2024-01-06T09:59:30;92897.63;;;1.08;100.00
50093;BME280;35974;47.752;10.290;2024-01-06T10:02:04;92924.47;;;1.22;100.00
50093;BME280;35974;47.752;10.290;2024-01-06T10:04:31;92915.28;;;1.20;100.00
50093;BME280;35974;47.752;10.290;2024-01-06T10:07:03;92908.88;;;1.16;100.00
50093;BME280;35974;47.752;10.290;2024-01-06T10:09:33;92922.06;;;1.21;100.00
50093;BME280;35974;47.752;10.290;2024-01-06T10:11:59;92905.66;;;1.14;100.00
50093;BME280;35974;47.752;10.290;2024-01-06T10:14:26;92915.63;;;1.17;100.00
50093;BME280;35974;47.752;10.290;2024-01-06T10:16:54;92925.56;;;1.28;100.00
50093;BME280;35974;47.752;10.290;2024-01-06T10:19:23;92915.28;;;1.20;100.00
50093;BME280;35974;47.752;10.290;2024-01-06T10:21:50;92903.75;;;1.16;100.00
50093;BME280;35974;47.752;10.290;2024-01-06T10:24:19;92910.25;;;1.26;100.00
50093;BME280;35974;47.752;10.290;2024-01-06T10:26:47;92911.97;;;1.34;100.00
50093;BME280;35974;47.752;10.290;2024-01-06T10:29:19;92887.63;;;1.14;100.00
50093;BME280;35974;47.752;10.290;2024-01-06T10:31:47;92900.50;;;1.14;100.00
50093;BME280;35974;47.752;10.290;2024-01-06T10:34:20;92908.56;;;1.19;100.00
50093;BME280;35974;47.752;10.290;2024-01-06T10:36:56;92909.81;;;1.23;100.00
50093;BME280;35974;47.752;10.290;2024-01-06T10:39:23;92908.19;;;1.22;100.00
50093;BME280;35974;47.752;10.290;2024-01-06T10:41:52;92908.56;;;1.19;100.00
50093;BME280;35974;47.752;10.290;2024-01-06T10:44:19;92915.75;;;1.23;100.00
50093;BME280;35974;47.752;10.290;2024-01-06T10:46:50;92930.69;;;1.28;100.00
50093;BME280;35974;47.752;10.290;2024-01-06T10:49:22;92927.78;;;1.31;100.00
50093;BME280;35974;47.752;10.290;2024-01-06T10:51:51;92927.44;;;1.34;100.00
50093;BME280;35974;47.752;10.290;2024-01-06T10:54:19;92903.84;;;1.22;100.00
50093;BME280;35974;47.752;10.290;2024-01-06T10:56:48;92908.50;;;1.27;100.00
50093;BME280;35974;47.752;10.290;2024-01-06T10:59:18;92909.13;;;1.29;100.00
50093;BME280;35974;47.752;10.290;2024-01-06T11:01:46;92901.56;;;1.27;100.00
50093;BME280;35974;47.752;10.290;2024-01-06T11:04:15;92887.56;;;1.22;100.00
50093;BME280;35974;47.752;10.290;2024-01-06T11:06:46;92890.56;;;1.34;100.00
50093;BME280;35974;47.752;10.290;2024-01-06T11:09:32;92882.56;;;1.28;100.00
50093;BME280;35974;47.752;10.290;2024-01-06T11:12:00;92899.97;;;1.50;100.00
50093;BME280;35974;47.752;10.290;2024-01-06T11:14:27;92884.59;;;1.33;100.00
50093;BME280;35974;47.752;10.290;2024-01-06T11:17:00;92886.56;;;1.31;100.00
50093;BME280;35974;47.752;10.290;2024-01-06T11:22:30;92890.91;;;1.54;100.00
50093;BME280;35974;47.752;10.290;2024-01-06T11:25:15;92879.22;;;1.66;100.00
50093;BME280;35974;47.752;10.290;2024-01-06T11:27:49;92859.72;;;1.63;100.00
50093;BME280;35974;47.752;10.290;2024-01-06T11:30:25;92877.16;;;1.61;100.00
50093;BME280;35974;47.752;10.290;2024-01-06T11:32:53;92878.88;;;1.46;100.00
50093;BME280;35974;47.752;10.290;2024-01-06T11:35:21;92837.06;;;1.36;100.00
50093;BME280;35974;47.752;10.290;2024-01-06T11:40:22;92871.75;;;1.71;100.00
50093;BME280;35974;47.752;10.290;2024-01-06T11:43:11;92870.81;;;1.64;100.00
50093;BME280;35974;47.752;10.290;2024-01-06T11:45:45;92851.94;;;1.49;100.00
50093;BME280;35974;47.752;10.290;2024-01-06T11:48:15;92854.81;;;1.54;100.00
50093;BME280;35974;47.752;10.290;2024-01-06T11:50:56;92850.91;;;1.58;100.00
50093;BME280;35974;47.752;10.290;2024-01-06T11:53:28;92862.75;;;1.67;100.00
50093;BME280;35974;47.752;10.290;2024-01-06T11:56:00;92854.81;;;1.54;100.00
50093;BME280;35974;47.752;10.290;2024-01-06T11:58:28;92861.22;;;1.58;100.00
50093;BME280;35974;47.752;10.290;2024-01-06T12:01:07;92851.94;;;1.49;100.00
50093;BME280;35974;47.752;10.290;2024-01-06T12:03:35;92865.13;;;1.54;100.00
50093;BME280;35974;47.752;10.290;2024-01-06T12:06:02;92871.88;;;1.55;100.00
50093;BME280;35974;47.752;10.290;2024-01-06T12:08:32;92876.72;;;1.58;100.00
50093;BME280;35974;47.752;10.290;2024-01-06T12:11:02;92872.94;;;1.22;100.00
50093;BME280;35974;47.752;10.290;2024-01-06T12:13:31;92859.22;;;1.22;100.00
50093;BME280;35974;47.752;10.290;2024-01-06T12:16:01;92854.72;;;1.24;100.00
50093;BME280;35974;47.752;10.290;2024-01-06T12:18:27;92853.91;;;1.46;100.00
50093;BME280;35974;47.752;10.290;2024-01-06T12:21:08;92845.03;;;1.26;100.00
50093;BME280;35974;47.752;10.290;2024-01-06T12:23:37;92866.16;;;1.44;100.00
50093;BME280;35974;47.752;10.290;2024-01-06T12:26:04;92853.66;;;1.33;100.00
50093;BME280;35974;47.752;10.290;2024-01-06T12:28:35;92848.50;;;1.33;100.00
50093;BME280;35974;47.752;10.290;2024-01-06T12:31:04;92843.72;;;1.30;100.00
50093;BME280;35974;47.752;10.290;2024-01-06T12:33:32;92841.09;;;1.38;100.00
50093;BME280;35974;47.752;10.290;2024-01-06T12:36:07;92853.31;;;1.59;100.00
50093;BME280;35974;47.752;10.290;2024-01-06T12:38:48;92845.88;;;1.64;100.00
50093;BME280;35974;47.752;10.290;2024-01-06T12:41:16;92854.59;;;1.78;100.00
50093;BME280;35974;47.752;10.290;2024-01-06T12:43:46;92828.34;;;1.60;100.00
50093;BME280;35974;47.752;10.290;2024-01-06T12:46:14;92848.69;;;1.55;100.00
50093;BME280;35974;47.752;10.290;2024-01-06T12:48:41;92846.00;;;1.48;100.00
50093;BME280;35974;47.752;10.290;2024-01-06T12:51:08;92836.84;;;1.60;100.00
50093;BME280;35974;47.752;10.290;2024-01-06T12:53:34;92850.19;;;1.64;100.00
50093;BME280;35974;47.752;10.290;2024-01-06T12:56:02;92834.31;;;1.37;100.00
50093;BME280;35974;47.752;10.290;2024-01-06T12:58:29;92835.59;;;1.41;100.00
50093;BME280;35974;47.752;10.290;2024-01-06T13:00:57;92855.38;;;1.41;100.00